sensor_id;sensor_type;location;lat;lon;timestamp;pressure;altitude;pressure_sealevel;temperature;humidity
47726;BME280;33483;48.294;16.388;2023-02-21T00:02:58;99673.31;;;8.93;100.00
47726;BME280;33483;48.294;16.388;2023-02-21T00:05:44;99674.16;;;8.82;100.00
47726;BME280;33483;48.294;16.388;2023-02-21T00:08:30;99669.13;;;8.81;100.00
47726;BME280;33483;48.294;16.388;2023-02-21T00:11:15;99667.19;;;8.70;100.00
47726;BME280;33483;48.294;16.388;2023-02-21T00:14:01;99660.22;;;8.58;100.00
47726;BME280;33483;48.294;16.388;2023-02-21T00:16:47;99654.22;;;8.54;100.00
47726;BME280;33483;48.294;16.388;2023-02-21T00:19:33;99656.78;;;8.52;100.00
47726;BME280;33483;48.294;16.388;2023-02-21T00:22:19;99656.78;;;8.47;100.00
47726;BME280;33483;48.294;16.388;2023-02-21T00:25:04;99660.00;;;8.56;100.00
47726;BME280;33483;48.294;16.388;2023-02-21T00:27:50;99662.75;;;8.56;100.00
47726;BME280;33483;48.294;16.388;2023-02-21T00:30:36;99663.81;;;8.42;100.00
47726;BME280;33483;48.294;16.388;2023-02-21T00:33:22;99655.88;;;8.28;100.00
47726;BME280;33483;48.294;16.388;2023-02-21T00:36:08;99662.41;;;8.25;100.00
47726;BME280;33483;48.294;16.388;2023-02-21T00:38:54;99659.88;;;8.27;100.00
47726;BME280;33483;48.294;16.388;2023-02-21T00:41:40;99654.41;;;8.10;100.00
47726;BME280;33483;48.294;16.388;2023-02-21T00:44:26;99657.97;;;7.99;100.00
47726;BME280;33483;48.294;16.388;2023-02-21T00:47:11;99652.72;;;7.96;100.00
47726;BME280;33483;48.294;16.388;2023-02-21T00:49:57;99658.00;;;7.88;100.00
47726;BME280;33483;48.294;16.388;2023-02-21T00:52:43;99650.25;;;7.81;100.00
47726;BME280;33483;48.294;16.388;2023-02-21T00:55:29;99652.78;;;7.68;100.00
47726;BME280;33483;48.294;16.388;2023-02-21T00:58:15;99655.28;;;7.72;100.00
47726;BME280;33483;48.294;16.388;2023-02-21T01:01:00;99642.00;;;7.65;100.00
47726;BME280;33483;48.294;16.388;2023-02-21T01:03:46;99641.03;;;7.51;100.00
47726;BME280;33483;48.294;16.388;2023-02-21T01:06:32;99648.56;;;7.40;100.00
47726;BME280;33483;48.294;16.388;2023-02-21T01:09:17;99639.78;;;7.58;100.00
47726;BME280;33483;48.294;16.388;2023-02-21T01:12:03;99641.06;;;7.40;100.00
47726;BME280;33483;48.294;16.388;2023-02-21T01:14:49;99642.31;;;7.23;100.00
47726;BME280;33483;48.294;16.388;2023-02-21T01:17:35;99643.31;;;7.09;100.00
47726;BME280;33483;48.294;16.388;2023-02-21T01:20:20;99642.31;;;6.90;100.00
47726;BME280;33483;48.294;16.388;2023-02-21T01:23:06;99633.06;;;6.81;100.00
47726;BME280;33483;48.294;16.388;2023-02-21T01:25:52;99643.06;;;6.84;100.00
47726;BME280;33483;48.294;16.388;2023-02-21T01:28:40;99650.31;;;6.88;100.00
47726;BME280;33483;48.294;16.388;2023-02-21T01:31:25;99648.28;;;6.71;100.00
47726;BME280;33483;48.294;16.388;2023-02-21T01:34:12;99650.03;;;6.58;100.00
47726;BME280;33483;48.294;16.388;2023-02-21T01:37:00;99645.50;;;6.49;100.00
47726;BME280;33483;48.294;16.388;2023-02-21T01:39:48;99635.22;;;6.39;100.00
47726;BME280;33483;48.294;16.388;2023-02-21T01:42:36;99632.69;;;6.35;100.00
47726;BME280;33483;48.294;16.388;2023-02-21T01:48:16;99628.47;;;6.34;100.00
47726;BME280;33483;48.294;16.388;2023-02-21T01:51:03;99622.94;;;6.34;100.00
47726;BME280;33483;48.294;16.388;2023-02-21T01:53:50;99629.44;;;6.31;100.00
47726;BME280;33483;48.294;16.388;2023-02-21T01:56:39;99620.94;;;6.29;100.00
47726;BME280;33483;48.294;16.388;2023-02-21T01:59:25;99624.91;;;6.23;100.00
47726;BME280;33483;48.294;16.388;2023-02-21T02:05:15;99625.22;;;6.36;100.00
47726;BME280;33483;48.294;16.388;2023-02-21T02:08:03;99621.19;;;6.37;100.00
47726;BME280;33483;48.294;16.388;2023-02-21T02:10:50;99633.28;;;6.72;100.00
47726;BME280;33483;48.294;16.388;2023-02-21T02:24:30;99618.41;;;7.75;100.00
47726;BME280;33483;48.294;16.388;2023-02-21T02:34:35;99615.94;;;8.23;100.00
47726;BME280;33483;48.294;16.388;2023-02-21T02:37:11;99613.16;;;8.34;100.00
47726;BME280;33483;48.294;16.388;2023-02-21T02:39:50;99611.59;;;8.44;100.00
47726;BME280;33483;48.294;16.388;2023-02-21T02:47:41;99612.47;;;8.23;100.00
47726;BME280;33483;48.294;16.388;2023-02-21T02:50:10;99604.94;;;8.18;100.00
47726;BME280;33483;48.294;16.388;2023-02-21T02:52:48;99597.91;;;8.17;100.00
47726;BME280;33483;48.294;16.388;2023-02-21T02:55:37;99588.88;;;8.16;100.00
47726;BME280;33483;48.294;16.388;2023-02-21T02:58:06;99576.88;;;8.08;100.00
47726;BME280;33483;48.294;16.388;2023-02-21T03:00:35;99585.19;;;8.02;100.00
47726;BME280;33483;48.294;16.388;2023-02-21T03:03:11;99576.94;;;7.97;100.00
47726;BME280;33483;48.294;16.388;2023-02-21T03:10:47;99566.91;;;7.99;100.00
47726;BME280;33483;48.294;16.388;2023-02-21T03:13:25;99575.22;;;7.88;100.00
47726;BME280;33483;48.294;16.388;2023-02-21T03:16:09;99576.75;;;7.84;100.00
47726;BME280;33483;48.294;16.388;2023-02-21T03:18:40;99561.97;;;7.76;100.00
47726;BME280;33483;48.294;16.388;2023-02-21T03:21:13;99564.25;;;7.72;100.00
47726;BME280;33483;48.294;16.388;2023-02-21T03:23:42;99561.94;;;7.81;100.00
47726;BME280;33483;48.294;16.388;2023-02-21T03:26:13;99559.69;;;7.80;100.00
47726;BME280;33483;48.294;16.388;2023-02-21T03:28:44;99566.44;;;7.90;100.00
47726;BME280;33483;48.294;16.388;2023-02-21T03:31:13;99563.72;;;7.79;100.00
47726;BME280;33483;48.294;16.388;2023-02-21T03:33:44;99572.78;;;7.74;100.00
47726;BME280;33483;48.294;16.388;2023-02-21T03:36:11;99573.56;;;7.63;100.00
47726;BME280;33483;48.294;16.388;2023-02-21T03:38:42;99564.81;;;7.59;100.00
47726;BME280;33483;48.294;16.388;2023-02-21T03:41:09;99567.38;;;7.41;100.00
47726;BME280;33483;48.294;16.388;2023-02-21T03:43:38;99574.63;;;7.44;100.00
47726;BME280;33483;48.294;16.388;2023-02-21T03:46:06;99579.88;;;7.42;100.00
47726;BME280;33483;48.294;16.388;2023-02-21T03:48:34;99585.38;;;7.53;100.00
47726;BME280;33483;48.294;16.388;2023-02-21T03:51:14;99580.03;;;7.82;100.00
47726;BME280;33483;48.294;16.388;2023-02-21T03:53:42;99572.00;;;7.84;100.00
47726;BME280;33483;48.294;16.388;2023-02-21T03:56:10;99576.53;;;7.71;100.00
47726;BME280;33483;48.294;16.388;2023-02-21T03:59:03;99569.78;;;7.72;100.00
47726;BME280;33483;48.294;16.388;2023-02-21T04:01:31;99576.75;;;7.84;100.00
47726;BME280;33483;48.294;16.388;2023-02-21T04:03:59;99581.34;;;7.65;100.00
47726;BME280;33483;48.294;16.388;2023-02-21T04:06:27;99579.13;;;7.52;100.00
47726;BME280;33483;48.294;16.388;2023-02-21T04:08:55;99585.41;;;7.42;100.00
47726;BME280;33483;48.294;16.388;2023-02-21T04:11:24;99586.69;;;7.30;100.00
47726;BME280;33483;48.294;16.388;2023-02-21T04:13:52;99593.47;;;7.18;100.00
47726;BME280;33483;48.294;16.388;2023-02-21T04:16:19;99589.72;;;6.99;100.00
47726;BME280;33483;48.294;16.388;2023-02-21T04:18:49;99594.47;;;6.93;100.00
47726;BME280;33483;48.294;16.388;2023-02-21T04:21:18;99597.22;;;6.87;100.00
47726;BME280;33483;48.294;16.388;2023-02-21T04:23:49;99601.00;;;7.01;100.00
47726;BME280;33483;48.294;16.388;2023-02-21T04:26:20;99593.72;;;7.14;100.00
47726;BME280;33483;48.294;16.388;2023-02-21T04:28:49;99593.69;;;7.31;100.00
47726;BME280;33483;48.294;16.388;2023-02-21T04:31:17;99593.44;;;7.29;100.00
47726;BME280;33483;48.294;16.388;2023-02-21T04:33:44;99598.94;;;7.40;100.00
47726;BME280;33483;48.294;16.388;2023-02-21T04:36:19;99608.97;;;7.37;100.00
47726;BME280;33483;48.294;16.388;2023-02-21T04:38:48;99597.19;;;7.48;100.00
47726;BME280;33483;48.294;16.388;2023-02-21T04:41:18;99608.16;;;7.59;100.00
47726;BME280;33483;48.294;16.388;2023-02-21T04:43:45;99602.91;;;7.55;100.00
47726;BME280;33483;48.294;16.388;2023-02-21T04:46:13;99603.13;;;7.68;100.00
47726;BME280;33483;48.294;16.388;2023-02-21T04:48:43;99599.59;;;7.84;100.00
47726;BME280;33483;48.294;16.388;2023-02-21T04:51:11;99598.28;;;7.91;100.00
47726;BME280;33483;48.294;16.388;2023-02-21T04:53:45;99595.72;;;8.04;100.00
47726;BME280;33483;48.294;16.388;2023-02-21T04:56:13;99598.44;;;8.15;100.00
47726;BME280;33483;48.294;16.388;2023-02-21T04:58:42;99597.91;;;8.28;100.00
47726;BME280;33483;48.294;16.388;2023-02-21T05:01:12;99600.16;;;8.18;100.00
47726;BME280;33483;48.294;16.388;2023-02-21T05:03:40;99603.69;;;8.24;100.00
47726;BME280;33483;48.294;16.388;2023-02-21T05:06:07;99604.91;;;8.23;100.00
47726;BME280;33483;48.294;16.388;2023-02-21T05:08:34;99596.94;;;8.14;100.00
47726;BME280;33483;48.294;16.388;2023-02-21T05:11:05;99601.72;;;8.08;100.00
47726;BME280;33483;48.294;16.388;2023-02-21T05:13:34;99593.88;;;8.29;100.00
47726;BME280;33483;48.294;16.388;2023-02-21T05:16:01;99590.63;;;8.25;100.00
47726;BME280;33483;48.294;16.388;2023-02-21T05:18:28;99584.63;;;8.15;100.00
47726;BME280;33483;48.294;16.388;2023-02-21T05:20:55;99584.16;;;8.11;100.00
47726;BME280;33483;48.294;16.388;2023-02-21T05:23:25;99582.13;;;8.17;100.00
47726;BME280;33483;48.294;16.388;2023-02-21T05:26:06;99579.13;;;8.15;100.00
47726;BME280;33483;48.294;16.388;2023-02-21T05:28:33;99579.38;;;8.12;100.00
47726;BME280;33483;48.294;16.388;2023-02-21T05:31:04;99574.38;;;8.10;100.00
47726;BME280;33483;48.294;16.388;2023-02-21T05:33:31;99579.13;;;8.10;100.00
47726;BME280;33483;48.294;16.388;2023-02-21T05:35:58;99580.59;;;8.16;100.00
47726;BME280;33483;48.294;16.388;2023-02-21T05:38:25;99572.81;;;8.20;100.00
47726;BME280;33483;48.294;16.388;2023-02-21T05:40:53;99574.56;;;8.18;100.00
47726;BME280;33483;48.294;16.388;2023-02-21T05:43:20;99582.66;;;8.10;100.00
47726;BME280;33483;48.294;16.388;2023-02-21T05:45:47;99580.38;;;8.14;100.00
47726;BME280;33483;48.294;16.388;2023-02-21T05:48:14;99578.66;;;8.06;100.00
47726;BME280;33483;48.294;16.388;2023-02-21T05:50:42;99573.19;;;8.00;100.00
47726;BME280;33483;48.294;16.388;2023-02-21T05:53:10;99578.69;;;8.00;100.00
47726;BME280;33483;48.294;16.388;2023-02-21T05:55:37;99578.44;;;8.04;100.00
47726;BME280;33483;48.294;16.388;2023-02-21T05:58:04;99580.94;;;8.02;100.00
47726;BME280;33483;48.294;16.388;2023-02-21T06:00:32;99579.19;;;7.98;100.00
47726;BME280;33483;48.294;16.388;2023-02-21T06:02:59;99580.94;;;8.02;100.00
47726;BME280;33483;48.294;16.388;2023-02-21T06:05:30;99583.16;;;8.14;100.00
47726;BME280;33483;48.294;16.388;2023-02-21T06:07:58;99588.19;;;8.10;100.00
47726;BME280;33483;48.294;16.388;2023-02-21T06:10:25;99594.41;;;8.16;100.00
47726;BME280;33483;48.294;16.388;2023-02-21T06:12:52;99600.94;;;8.19;100.00
47726;BME280;33483;48.294;16.388;2023-02-21T06:15:19;99596.34;;;8.32;100.00
47726;BME280;33483;48.294;16.388;2023-02-21T06:17:46;99603.34;;;8.39;100.00
47726;BME280;33483;48.294;16.388;2023-02-21T06:20:13;99605.13;;;8.36;100.00
47726;BME280;33483;48.294;16.388;2023-02-21T06:22:42;99603.56;;;8.46;100.00
47726;BME280;33483;48.294;16.388;2023-02-21T06:25:13;99598.53;;;8.50;100.00
47726;BME280;33483;48.294;16.388;2023-02-21T06:27:40;99605.22;;;8.60;100.00
47726;BME280;33483;48.294;16.388;2023-02-21T06:30:07;99624.50;;;8.71;100.00
47726;BME280;33483;48.294;16.388;2023-02-21T06:32:36;99620.94;;;8.76;100.00
47726;BME280;33483;48.294;16.388;2023-02-21T06:35:03;99624.41;;;8.82;100.00
47726;BME280;33483;48.294;16.388;2023-02-21T06:37:30;99632.66;;;8.88;100.00
47726;BME280;33483;48.294;16.388;2023-02-21T06:39:58;99627.81;;;8.99;100.00
47726;BME280;33483;48.294;16.388;2023-02-21T06:42:25;99635.78;;;9.08;97.95
47726;BME280;33483;48.294;16.388;2023-02-21T06:44:52;99648.47;;;9.23;96.75
47726;BME280;33483;48.294;16.388;2023-02-21T06:47:19;99649.44;;;9.31;95.62
47726;BME280;33483;48.294;16.388;2023-02-21T06:49:48;99658.78;;;9.52;92.26
47726;BME280;33483;48.294;16.388;2023-02-21T06:52:15;99653.59;;;9.91;89.32
47726;BME280;33483;48.294;16.388;2023-02-21T06:54:44;99664.47;;;10.50;81.98
47726;BME280;33483;48.294;16.388;2023-02-21T06:57:11;99670.78;;;10.51;80.16
47726;BME280;33483;48.294;16.388;2023-02-21T06:59:38;99673.44;;;10.93;76.62
47726;BME280;33483;48.294;16.388;2023-02-21T07:02:07;99678.53;;;11.97;71.60
47726;BME280;33483;48.294;16.388;2023-02-21T07:04:41;99682.97;;;12.66;65.29
47726;BME280;33483;48.294;16.388;2023-02-21T07:07:08;99686.72;;;13.22;62.26
47726;BME280;33483;48.294;16.388;2023-02-21T07:09:35;99700.00;;;14.70;57.43
47726;BME280;33483;48.294;16.388;2023-02-21T07:12:02;99709.16;;;15.89;52.78
47726;BME280;33483;48.294;16.388;2023-02-21T07:14:32;99716.84;;;16.66;48.90
47726;BME280;33483;48.294;16.388;2023-02-21T07:16:59;99714.03;;;17.06;45.54
47726;BME280;33483;48.294;16.388;2023-02-21T07:19:26;99710.66;;;17.07;45.43
47726;BME280;33483;48.294;16.388;2023-02-21T07:21:56;99715.97;;;17.60;44.30
47726;BME280;33483;48.294;16.388;2023-02-21T07:24:23;99723.69;;;17.44;43.84
47726;BME280;33483;48.294;16.388;2023-02-21T07:26:50;99710.97;;;17.75;43.10
47726;BME280;33483;48.294;16.388;2023-02-21T07:29:17;99713.78;;;17.51;43.20
47726;BME280;33483;48.294;16.388;2023-02-21T07:31:45;99722.41;;;17.94;42.23
47726;BME280;33483;48.294;16.388;2023-02-21T07:34:12;99715.03;;;17.82;42.31
47726;BME280;33483;48.294;16.388;2023-02-21T07:36:42;99715.84;;;18.34;41.17
47726;BME280;33483;48.294;16.388;2023-02-21T07:39:10;99715.75;;;18.07;42.24
47726;BME280;33483;48.294;16.388;2023-02-21T07:41:37;99725.34;;;18.55;40.32
47726;BME280;33483;48.294;16.388;2023-02-21T07:44:10;99731.25;;;19.37;39.23
47726;BME280;33483;48.294;16.388;2023-02-21T07:46:37;99731.94;;;19.28;38.92
47726;BME280;33483;48.294;16.388;2023-02-21T07:49:10;99732.09;;;19.30;38.51
47726;BME280;33483;48.294;16.388;2023-02-21T07:51:37;99735.66;;;19.67;38.42
47726;BME280;33483;48.294;16.388;2023-02-21T07:54:04;99738.13;;;19.00;38.77
47726;BME280;33483;48.294;16.388;2023-02-21T07:56:31;99736.53;;;19.60;38.28
47726;BME280;33483;48.294;16.388;2023-02-21T07:58:59;99735.00;;;19.49;38.05
47726;BME280;33483;48.294;16.388;2023-02-21T08:01:26;99732.38;;;19.07;38.57
47726;BME280;33483;48.294;16.388;2023-02-21T08:03:53;99727.97;;;19.31;38.41
47726;BME280;33483;48.294;16.388;2023-02-21T08:06:20;99729.34;;;18.96;38.98
47726;BME280;33483;48.294;16.388;2023-02-21T08:08:47;99734.94;;;19.13;38.95
47726;BME280;33483;48.294;16.388;2023-02-21T08:11:14;99733.19;;;19.44;38.29
47726;BME280;33483;48.294;16.388;2023-02-21T08:13:42;99738.81;;;19.44;37.89
47726;BME280;33483;48.294;16.388;2023-02-21T08:16:11;99728.84;;;18.05;40.60
47726;BME280;33483;48.294;16.388;2023-02-21T08:18:39;99729.03;;;18.92;39.61
47726;BME280;33483;48.294;16.388;2023-02-21T08:21:07;99733.38;;;19.02;39.02
47726;BME280;33483;48.294;16.388;2023-02-21T08:23:35;99737.19;;;18.97;39.21
47726;BME280;33483;48.294;16.388;2023-02-21T08:26:03;99740.22;;;18.48;39.96
47726;BME280;33483;48.294;16.388;2023-02-21T08:28:30;99749.38;;;18.66;39.94
47726;BME280;33483;48.294;16.388;2023-02-21T08:30:57;99745.91;;;18.75;40.34
47726;BME280;33483;48.294;16.388;2023-02-21T08:33:24;99748.72;;;18.41;40.37
47726;BME280;33483;48.294;16.388;2023-02-21T08:35:57;99751.19;;;18.54;40.76
47726;BME280;33483;48.294;16.388;2023-02-21T08:38:24;99755.69;;;17.41;42.38
47726;BME280;33483;48.294;16.388;2023-02-21T08:40:51;99764.34;;;16.81;43.81
47726;BME280;33483;48.294;16.388;2023-02-21T08:43:18;99761.31;;;16.32;45.80
47726;BME280;33483;48.294;16.388;2023-02-21T08:45:45;99761.13;;;16.15;46.65
47726;BME280;33483;48.294;16.388;2023-02-21T08:48:12;99763.19;;;15.61;47.87
47726;BME280;33483;48.294;16.388;2023-02-21T08:50:39;99761.63;;;15.30;48.85
47726;BME280;33483;48.294;16.388;2023-02-21T08:53:07;99754.31;;;14.69;51.12
47726;BME280;33483;48.294;16.388;2023-02-21T08:55:34;99770.47;;;14.35;52.56
47726;BME280;33483;48.294;16.388;2023-02-21T08:58:01;99755.13;;;14.49;52.93
47726;BME280;33483;48.294;16.388;2023-02-21T09:00:30;99759.31;;;14.35;53.43
47726;BME280;33483;48.294;16.388;2023-02-21T09:02:58;99759.66;;;14.31;54.40
47726;BME280;33483;48.294;16.388;2023-02-21T09:05:29;99748.59;;;13.90;55.62
47726;BME280;33483;48.294;16.388;2023-02-21T09:07:58;99756.63;;;13.73;56.60
47726;BME280;33483;48.294;16.388;2023-02-21T09:10:27;99743.44;;;13.74;56.66
47726;BME280;33483;48.294;16.388;2023-02-21T09:12:55;99744.13;;;13.67;57.31
47726;BME280;33483;48.294;16.388;2023-02-21T09:15:22;99743.44;;;13.74;57.82
47726;BME280;33483;48.294;16.388;2023-02-21T09:17:52;99746.22;;;13.94;57.20
47726;BME280;33483;48.294;16.388;2023-02-21T09:20:21;99737.50;;;13.98;56.92
47726;BME280;33483;48.294;16.388;2023-02-21T09:22:49;99740.63;;;13.94;57.22
47726;BME280;33483;48.294;16.388;2023-02-21T09:25:17;99738.63;;;14.02;57.16
47726;BME280;33483;48.294;16.388;2023-02-21T09:27:45;99740.72;;;14.30;56.69
47726;BME280;33483;48.294;16.388;2023-02-21T09:30:15;99741.28;;;14.08;56.92
47726;BME280;33483;48.294;16.388;2023-02-21T09:32:42;99739.97;;;14.29;56.04
47726;BME280;33483;48.294;16.388;2023-02-21T09:35:10;99730.16;;;14.36;55.68
47726;BME280;33483;48.294;16.388;2023-02-21T09:37:40;99732.94;;;14.36;55.54
47726;BME280;33483;48.294;16.388;2023-02-21T09:43:14;99727.78;;;14.40;56.88
47726;BME280;33483;48.294;16.388;2023-02-21T09:45:42;99716.63;;;14.47;56.76
47726;BME280;33483;48.294;16.388;2023-02-21T09:48:12;99721.81;;;14.79;55.81
47726;BME280;33483;48.294;16.388;2023-02-21T09:50:44;99724.19;;;14.75;54.96
47726;BME280;33483;48.294;16.388;2023-02-21T09:53:13;99726.44;;;14.69;56.11
47726;BME280;33483;48.294;16.388;2023-02-21T09:55:42;99720.38;;;14.50;55.91
47726;BME280;33483;48.294;16.388;2023-02-21T09:58:12;99718.06;;;14.33;56.22
47726;BME280;33483;48.294;16.388;2023-02-21T10:00:40;99723.75;;;14.56;57.26
47726;BME280;33483;48.294;16.388;2023-02-21T10:08:43;99739.25;;;15.23;54.52
47726;BME280;33483;48.294;16.388;2023-02-21T10:21:45;99729.56;;;14.65;55.94
47726;BME280;33483;48.294;16.388;2023-02-21T10:24:18;99725.19;;;14.85;55.87
47726;BME280;33483;48.294;16.388;2023-02-21T10:26:47;99722.53;;;14.72;56.47
47726;BME280;33483;48.294;16.388;2023-02-21T10:29:22;99721.81;;;14.79;55.64
47726;BME280;33483;48.294;16.388;2023-02-21T10:31:58;99721.69;;;14.92;56.59
47726;BME280;33483;48.294;16.388;2023-02-21T10:34:29;99710.16;;;14.96;55.85
47726;BME280;33483;48.294;16.388;2023-02-21T10:37:01;99715.22;;;14.61;56.21
47726;BME280;33483;48.294;16.388;2023-02-21T10:39:38;99711.69;;;14.61;56.71
47726;BME280;33483;48.294;16.388;2023-02-21T10:42:12;99712.69;;;14.79;56.49
47726;BME280;33483;48.294;16.388;2023-02-21T10:44:41;99708.19;;;14.68;56.82
47726;BME280;33483;48.294;16.388;2023-02-21T10:47:19;99702.06;;;14.77;55.90
47726;BME280;33483;48.294;16.388;2023-02-21T10:49:53;99695.78;;;14.84;56.06
47726;BME280;33483;48.294;16.388;2023-02-21T10:52:28;99685.41;;;15.00;55.30
47726;BME280;33483;48.294;16.388;2023-02-21T10:59:03;99694.75;;;15.17;55.34
47726;BME280;33483;48.294;16.388;2023-02-21T11:01:42;99697.59;;;15.32;54.19
47726;BME280;33483;48.294;16.388;2023-02-21T11:09:41;99689.94;;;15.25;54.51
47726;BME280;33483;48.294;16.388;2023-02-21T11:20:28;99689.75;;;16.06;52.48
47726;BME280;33483;48.294;16.388;2023-02-21T11:22:55;99681.97;;;15.44;53.39
47726;BME280;33483;48.294;16.388;2023-02-21T11:33:24;99675.03;;;15.38;54.05
47726;BME280;33483;48.294;16.388;2023-02-21T11:36:06;99678.38;;;15.36;55.11
47726;BME280;33483;48.294;16.388;2023-02-21T11:38:42;99660.72;;;15.41;55.61
47726;BME280;33483;48.294;16.388;2023-02-21T11:41:22;99661.63;;;15.36;54.54
47726;BME280;33483;48.294;16.388;2023-02-21T11:43:54;99657.22;;;15.41;55.57
47726;BME280;33483;48.294;16.388;2023-02-21T11:54:12;99676.91;;;15.96;54.21
47726;BME280;33483;48.294;16.388;2023-02-21T11:56:48;99670.03;;;15.82;54.69
47726;BME280;33483;48.294;16.388;2023-02-21T11:59:22;99665.56;;;15.33;56.06
47726;BME280;33483;48.294;16.388;2023-02-21T12:02:11;99662.16;;;15.05;57.60
47726;BME280;33483;48.294;16.388;2023-02-21T12:09:58;99657.72;;;14.43;59.71
47726;BME280;33483;48.294;16.388;2023-02-21T12:28:58;99636.91;;;15.63;58.79
47726;BME280;33483;48.294;16.388;2023-02-21T12:34:39;99620.41;;;16.05;56.45
47726;BME280;33483;48.294;16.388;2023-02-21T12:39:55;99611.44;;;16.21;55.21
47726;BME280;33483;48.294;16.388;2023-02-21T12:47:44;99608.53;;;15.97;56.02
47726;BME280;33483;48.294;16.388;2023-02-21T12:50:17;99610.72;;;16.06;56.08
47726;BME280;33483;48.294;16.388;2023-02-21T12:52:54;99594.38;;;15.79;55.08
47726;BME280;33483;48.294;16.388;2023-02-21T12:55:37;99602.28;;;15.58;56.96
47726;BME280;33483;48.294;16.388;2023-02-21T13:03:22;99592.56;;;14.92;58.66
47726;BME280;33483;48.294;16.388;2023-02-21T13:05:58;99582.28;;;14.64;60.10
47726;BME280;33483;48.294;16.388;2023-02-21T13:08:31;99579.88;;;14.76;60.56
47726;BME280;33483;48.294;16.388;2023-02-21T13:13:39;99566.47;;;14.59;61.42
47726;BME280;33483;48.294;16.388;2023-02-21T13:16:09;99569.09;;;14.72;60.71
47726;BME280;33483;48.294;16.388;2023-02-21T13:18:39;99569.66;;;14.78;60.52
47726;BME280;33483;48.294;16.388;2023-02-21T13:23:56;99555.41;;;14.31;61.48
47726;BME280;33483;48.294;16.388;2023-02-21T13:29:01;99567.06;;;14.80;59.52
47726;BME280;33483;48.294;16.388;2023-02-21T13:31:34;99561.66;;;15.05;58.54
47726;BME280;33483;48.294;16.388;2023-02-21T13:34:06;99570.97;;;15.07;58.21
47726;BME280;33483;48.294;16.388;2023-02-21T13:42:03;99575.06;;;15.14;58.08
47726;BME280;33483;48.294;16.388;2023-02-21T13:44:29;99573.97;;;15.09;58.27
47726;BME280;33483;48.294;16.388;2023-02-21T13:57:42;99573.59;;;15.05;58.18
47726;BME280;33483;48.294;16.388;2023-02-21T14:05:21;99572.84;;;15.05;58.71
47726;BME280;33483;48.294;16.388;2023-02-21T14:10:25;99565.38;;;14.85;59.18
47726;BME280;33483;48.294;16.388;2023-02-21T14:12:53;99556.63;;;14.81;59.68
47726;BME280;33483;48.294;16.388;2023-02-21T14:15:21;99561.66;;;14.75;61.60
47726;BME280;33483;48.294;16.388;2023-02-21T14:17:50;99567.22;;;14.67;60.31
47726;BME280;33483;48.294;16.388;2023-02-21T14:20:19;99555.31;;;14.59;60.24
47726;BME280;33483;48.294;16.388;2023-02-21T14:22:48;99561.41;;;14.57;60.37
47726;BME280;33483;48.294;16.388;2023-02-21T14:25:17;99559.38;;;14.58;60.43
47726;BME280;33483;48.294;16.388;2023-02-21T14:27:46;99557.91;;;14.64;61.04
47726;BME280;33483;48.294;16.388;2023-02-21T14:30:20;99552.69;;;14.61;59.70
47726;BME280;33483;48.294;16.388;2023-02-21T14:32:48;99555.31;;;14.66;61.27
47726;BME280;33483;48.294;16.388;2023-02-21T14:40:26;99552.19;;;14.85;60.40
47726;BME280;33483;48.294;16.388;2023-02-21T14:43:15;99553.84;;;14.81;60.35
47726;BME280;33483;48.294;16.388;2023-02-21T14:56:33;99553.47;;;14.84;59.76
47726;BME280;33483;48.294;16.388;2023-02-21T15:01:58;99553.47;;;14.69;61.43
47726;BME280;33483;48.294;16.388;2023-02-21T15:09:33;99547.88;;;14.69;61.40
47726;BME280;33483;48.294;16.388;2023-02-21T15:12:01;99540.81;;;14.68;61.67
47726;BME280;33483;48.294;16.388;2023-02-21T15:14:30;99540.81;;;14.60;61.40
47726;BME280;33483;48.294;16.388;2023-02-21T15:17:09;99544.13;;;14.51;61.01
47726;BME280;33483;48.294;16.388;2023-02-21T15:19:37;99537.81;;;14.43;61.35
47726;BME280;33483;48.294;16.388;2023-02-21T15:22:06;99538.34;;;14.42;62.08
47726;BME280;33483;48.294;16.388;2023-02-21T15:24:33;99532.19;;;14.36;62.73
47726;BME280;33483;48.294;16.388;2023-02-21T15:27:07;99535.53;;;14.34;63.04
47726;BME280;33483;48.294;16.388;2023-02-21T15:29:35;99537.59;;;14.34;63.14
47726;BME280;33483;48.294;16.388;2023-02-21T15:32:02;99534.75;;;14.26;62.84
47726;BME280;33483;48.294;16.388;2023-02-21T15:34:41;99540.50;;;14.21;64.01
47726;BME280;33483;48.294;16.388;2023-02-21T15:37:16;99534.13;;;14.13;64.82
47726;BME280;33483;48.294;16.388;2023-02-21T15:39:52;99539.72;;;14.13;63.44
47726;BME280;33483;48.294;16.388;2023-02-21T15:42:21;99534.09;;;14.05;64.78
47726;BME280;33483;48.294;16.388;2023-02-21T15:47:22;99539.47;;;13.96;64.83
47726;BME280;33483;48.294;16.388;2023-02-21T15:50:06;99542.97;;;13.89;66.16
47726;BME280;33483;48.294;16.388;2023-02-21T16:05:49;99546.75;;;13.63;67.63
47726;BME280;33483;48.294;16.388;2023-02-21T16:08:17;99545.22;;;13.54;69.20
47726;BME280;33483;48.294;16.388;2023-02-21T16:10:47;99557.22;;;13.49;69.95
47726;BME280;33483;48.294;16.388;2023-02-21T16:13:15;99552.19;;;13.48;69.88
47726;BME280;33483;48.294;16.388;2023-02-21T16:15:43;99560.53;;;13.40;71.19
47726;BME280;33483;48.294;16.388;2023-02-21T16:18:15;99562.50;;;13.32;72.63
47726;BME280;33483;48.294;16.388;2023-02-21T16:20:46;99564.69;;;13.26;73.44
47726;BME280;33483;48.294;16.388;2023-02-21T16:23:25;99566.50;;;13.24;73.50
47726;BME280;33483;48.294;16.388;2023-02-21T16:28:35;99570.88;;;13.12;74.67
47726;BME280;33483;48.294;16.388;2023-02-21T16:31:03;99569.88;;;13.02;76.51
47726;BME280;33483;48.294;16.388;2023-02-21T16:33:34;99579.75;;;12.90;77.56
47726;BME280;33483;48.294;16.388;2023-02-21T16:36:05;99582.56;;;12.77;79.32
47726;BME280;33483;48.294;16.388;2023-02-21T16:38:33;99578.56;;;12.65;81.26